createdAt,value
2018-07-23T00:00:13.135Z,4.80
2018-07-23T00:02:40.562Z,4.17
2018-07-23T00:05:07.995Z,4.67
2018-07-23T00:07:35.395Z,4.03
2018-07-23T00:10:02.876Z,4.50
2018-07-23T00:12:30.283Z,4.27
2018-07-23T00:14:57.670Z,4.33
2018-07-23T00:17:25.092Z,4.63
2018-07-23T00:19:52.526Z,4.43
2018-07-23T00:22:19.979Z,4.73
2018-07-23T00:24:47.359Z,4.60
2018-07-23T00:27:14.775Z,4.53
2018-07-23T00:29:42.150Z,4.60
2018-07-23T00:32:09.549Z,5.40
2018-07-23T00:34:36.972Z,4.57
2018-07-23T00:37:04.343Z,5.23
2018-07-23T00:39:31.759Z,4.87
2018-07-23T00:41:59.169Z,4.80
2018-07-23T00:44:26.568Z,4.93
2018-07-23T00:46:53.991Z,4.60
2018-07-23T00:49:21.401Z,5.07
2018-07-23T00:51:48.842Z,4.70
2018-07-23T00:54:16.239Z,4.53
2018-07-23T00:56:43.683Z,5.30
2018-07-23T00:59:11.071Z,4.90
2018-07-23T01:01:38.474Z,5.20
2018-07-23T01:04:05.898Z,4.83
2018-07-23T01:06:33.288Z,5.10
2018-07-23T01:09:00.692Z,4.70
2018-07-23T01:11:28.084Z,4.90
2018-07-23T01:13:55.458Z,5.07
2018-07-23T01:16:22.859Z,4.87
2018-07-23T01:18:50.257Z,5.00
2018-07-23T01:21:17.673Z,5.37
2018-07-23T01:23:45.117Z,4.90
2018-07-23T01:26:12.514Z,5.90
2018-07-23T01:28:39.906Z,5.30
2018-07-23T01:31:07.419Z,4.93
2018-07-23T01:33:34.832Z,5.67
2018-07-23T01:36:02.219Z,5.47
2018-07-23T01:38:29.632Z,6.33
2018-07-23T01:40:57.124Z,6.10
2018-07-23T01:43:24.538Z,5.93
2018-07-23T01:45:52.093Z,6.20
2018-07-23T01:48:19.557Z,6.10
2018-07-23T01:50:46.956Z,5.67
2018-07-23T01:53:14.359Z,5.50
2018-07-23T01:55:41.783Z,6.63
2018-07-23T01:58:09.203Z,6.03
2018-07-23T02:00:36.613Z,6.00
2018-07-23T02:03:04.198Z,7.67
2018-07-23T02:05:31.613Z,6.70
2018-07-23T02:07:59.088Z,6.67
2018-07-23T02:10:26.507Z,6.13
2018-07-23T02:12:53.954Z,6.80
2018-07-23T02:15:21.407Z,6.83
2018-07-23T02:17:48.820Z,6.60
2018-07-23T02:20:16.255Z,7.20
2018-07-23T02:22:43.670Z,6.97
2018-07-23T02:25:11.063Z,6.53
2018-07-23T02:27:38.480Z,6.67
2018-07-23T02:30:05.923Z,6.50
2018-07-23T02:32:33.319Z,6.73
2018-07-23T02:35:00.735Z,7.00
2018-07-23T02:37:28.159Z,6.53
2018-07-23T02:39:55.547Z,7.33
2018-07-23T02:42:23.092Z,6.77
2018-07-23T02:44:50.490Z,7.50
2018-07-23T02:47:17.906Z,6.40
2018-07-23T02:49:45.337Z,6.40
2018-07-23T02:52:12.742Z,7.90
2018-07-23T02:54:40.135Z,7.27
2018-07-23T02:57:07.547Z,6.47
2018-07-23T02:59:34.956Z,7.13
2018-07-23T03:02:02.379Z,7.40
2018-07-23T03:04:29.799Z,7.20
2018-07-23T03:06:57.201Z,6.70
2018-07-23T03:09:24.575Z,7.17
2018-07-23T03:11:51.997Z,6.70
2018-07-23T03:14:19.405Z,6.83
2018-07-23T03:16:46.832Z,6.37
2018-07-23T03:19:14.257Z,6.43
2018-07-23T03:21:41.687Z,6.60
2018-07-23T03:24:09.108Z,7.33
2018-07-23T03:26:36.527Z,6.83
2018-07-23T03:29:03.971Z,7.67
2018-07-23T03:31:31.367Z,6.90
2018-07-23T03:33:58.775Z,7.30
2018-07-23T03:36:26.156Z,6.87
2018-07-23T03:38:53.559Z,7.00
2018-07-23T03:41:20.954Z,8.37
2018-07-23T03:43:48.334Z,7.60
2018-07-23T03:46:15.739Z,7.83
2018-07-23T03:48:43.118Z,7.07
2018-07-23T03:51:10.501Z,7.90
2018-07-23T03:53:37.923Z,7.53
2018-07-23T03:56:05.583Z,8.87
2018-07-23T03:58:32.972Z,8.80
2018-07-23T04:01:00.412Z,9.87
2018-07-23T04:03:27.802Z,8.30
2018-07-23T04:05:55.219Z,7.90
2018-07-23T04:08:22.653Z,8.50
2018-07-23T04:10:50.238Z,8.13
2018-07-23T04:13:17.623Z,8.67
2018-07-23T04:15:45.047Z,8.37
2018-07-23T04:18:12.426Z,9.00
2018-07-23T04:20:39.816Z,8.50
2018-07-23T04:23:07.242Z,7.73
2018-07-23T04:25:34.838Z,9.13
2018-07-23T04:28:02.340Z,8.17
2018-07-23T04:30:29.759Z,8.40
2018-07-23T04:32:57.183Z,10.07
2018-07-23T04:35:24.628Z,9.43
2018-07-23T04:37:52.173Z,8.83
2018-07-23T04:40:19.583Z,9.50
2018-07-23T04:42:46.995Z,8.67
2018-07-23T04:45:14.382Z,9.83
2018-07-23T04:47:42.051Z,9.13
2018-07-23T04:50:09.519Z,10.10
2018-07-23T04:52:36.906Z,10.50
2018-07-23T04:55:04.303Z,11.73
2018-07-23T04:57:31.703Z,10.20
2018-07-23T05:00:00.011Z,10.43
2018-07-23T05:02:27.395Z,11.17
2018-07-23T05:04:54.773Z,11.77
2018-07-23T05:07:22.194Z,11.47
2018-07-23T05:09:49.599Z,11.73
2018-07-23T05:12:17.144Z,15.13
2018-07-23T05:14:44.590Z,16.73
2018-07-23T05:17:12.428Z,18.27
2018-07-23T05:19:39.803Z,17.47
2018-07-23T05:22:07.208Z,17.67
2018-07-23T05:24:34.630Z,18.40
2018-07-23T05:27:02.036Z,18.43
2018-07-23T05:29:29.468Z,19.07
2018-07-23T05:31:56.900Z,18.70
2018-07-23T05:34:24.325Z,19.07
2018-07-23T05:36:51.779Z,18.47
2018-07-23T05:39:19.172Z,18.73
2018-07-23T05:41:46.584Z,17.77
2018-07-23T05:44:13.988Z,20.40
2018-07-23T05:46:41.369Z,19.77
2018-07-23T05:49:08.856Z,19.60
2018-07-23T05:51:36.230Z,20.77
2018-07-23T05:54:03.725Z,20.97
2018-07-23T05:56:31.230Z,19.03
2018-07-23T05:58:58.803Z,19.80
2018-07-23T06:01:26.167Z,21.43
2018-07-23T06:03:53.596Z,19.40
2018-07-23T06:06:21.014Z,17.63
2018-07-23T06:08:48.424Z,17.70
2018-07-23T06:11:15.838Z,16.80
2018-07-23T06:13:43.299Z,17.13
2018-07-23T06:16:10.688Z,15.73
2018-07-23T06:18:38.128Z,15.50
2018-07-23T06:21:05.684Z,14.17
2018-07-23T06:23:33.375Z,12.47
2018-07-23T06:26:00.779Z,12.67
2018-07-23T06:28:28.280Z,12.13
2018-07-23T06:30:55.764Z,13.73
2018-07-23T06:33:23.205Z,13.17
2018-07-23T06:35:50.651Z,12.10
2018-07-23T06:38:18.109Z,12.00
2018-07-23T06:40:45.665Z,10.80
2018-07-23T06:43:13.090Z,11.95
2018-07-23T06:45:40.524Z,12.20
2018-07-23T06:48:07.911Z,10.65
2018-07-23T06:50:35.314Z,11.10
2018-07-23T06:53:02.749Z,9.73
2018-07-23T06:55:30.161Z,6.83
2018-07-23T06:57:57.567Z,9.00
2018-07-23T07:00:25.103Z,9.70
2018-07-23T07:02:52.523Z,8.20
2018-07-23T07:05:19.896Z,7.97
2018-07-23T07:07:47.299Z,7.53
2018-07-23T07:10:14.698Z,9.03
2018-07-23T07:12:42.118Z,9.08
2018-07-23T07:15:09.596Z,9.63
2018-07-23T07:17:37.080Z,8.23
2018-07-23T07:20:04.575Z,6.72
2018-07-23T07:22:32.010Z,7.20
2018-07-23T07:24:59.428Z,7.72
2018-07-23T07:27:26.836Z,7.03
2018-07-23T07:29:54.628Z,7.17
2018-07-23T07:32:22.134Z,5.85
2018-07-23T07:34:49.650Z,6.33
2018-07-23T07:37:17.075Z,6.25
2018-07-23T07:39:44.757Z,5.67
2018-07-23T07:42:12.184Z,5.03
2018-07-23T07:44:39.590Z,4.70
2018-07-23T07:47:07.211Z,5.45
2018-07-23T07:49:35.021Z,5.28
2018-07-23T07:52:02.469Z,5.85
2018-07-23T07:54:29.886Z,6.37
2018-07-23T07:56:57.316Z,6.17
2018-07-23T07:59:24.712Z,6.75
2018-07-23T08:01:52.115Z,7.60
2018-07-23T08:04:19.551Z,7.17
2018-07-23T08:06:46.986Z,6.72
2018-07-23T08:09:14.403Z,7.65
2018-07-23T08:11:41.910Z,6.97
2018-07-23T08:14:09.317Z,7.90
2018-07-23T08:16:36.779Z,8.20
2018-07-23T08:19:04.255Z,7.17
2018-07-23T08:21:31.692Z,8.15
2018-07-23T08:23:59.164Z,7.72
2018-07-23T08:26:26.592Z,8.90
2018-07-23T08:28:54.066Z,9.00
2018-07-23T08:31:21.660Z,8.88
2018-07-23T08:33:49.077Z,8.78
2018-07-23T08:36:16.518Z,8.25
2018-07-23T08:38:43.935Z,8.90
2018-07-23T08:41:11.337Z,8.63
2018-07-23T08:43:38.723Z,9.30
2018-07-23T08:46:06.158Z,8.83
2018-07-23T08:48:33.608Z,9.58
2018-07-23T08:51:00.984Z,9.05
2018-07-23T08:53:28.441Z,9.28
2018-07-23T08:55:55.908Z,9.20
2018-07-23T08:58:23.376Z,8.95
2018-07-23T09:00:50.785Z,8.95
2018-07-23T09:03:18.218Z,9.15
2018-07-23T09:05:45.668Z,8.35
2018-07-23T09:08:13.079Z,10.23
2018-07-23T09:10:40.473Z,11.73
2018-07-23T09:13:07.920Z,11.28
2018-07-23T09:15:35.348Z,11.15
2018-07-23T09:18:02.774Z,11.08
2018-07-23T09:20:30.232Z,9.70
2018-07-23T09:22:57.644Z,11.10
2018-07-23T09:25:29.657Z,11.30
2018-07-23T09:27:57.100Z,9.65
2018-07-23T09:30:30.212Z,10.82
2018-07-23T09:32:57.694Z,9.13
2018-07-23T09:35:25.115Z,9.65
2018-07-23T09:37:52.558Z,9.78
2018-07-23T09:40:20.016Z,8.75
2018-07-23T09:42:47.447Z,8.80
2018-07-23T09:45:14.855Z,9.20
2018-07-23T09:47:43.280Z,9.50
2018-07-23T09:50:10.736Z,8.50
2018-07-23T09:52:38.204Z,10.00
2018-07-23T09:55:05.661Z,9.48
2018-07-23T09:57:33.073Z,9.30
2018-07-23T10:00:00.491Z,9.35
2018-07-23T10:02:27.924Z,10.53
2018-07-23T10:04:55.321Z,9.30
2018-07-23T10:07:22.735Z,9.08
2018-07-23T10:09:50.183Z,9.08
2018-07-23T10:12:17.856Z,8.23
2018-07-23T10:14:45.270Z,7.92
2018-07-23T10:17:12.706Z,7.58
2018-07-23T10:19:40.436Z,8.10
2018-07-23T10:22:07.969Z,9.03
2018-07-23T10:24:35.360Z,8.30
2018-07-23T10:27:02.824Z,9.08
2018-07-23T10:29:30.247Z,8.18
2018-07-23T10:31:57.687Z,9.23
2018-07-23T10:34:25.146Z,9.28
2018-07-23T10:36:52.575Z,8.65
2018-07-23T10:39:20.009Z,8.18
2018-07-23T10:41:47.448Z,9.63
2018-07-23T10:44:14.857Z,9.80
2018-07-23T10:46:42.295Z,9.68
2018-07-23T10:49:09.747Z,8.33
2018-07-23T10:51:37.175Z,8.83
2018-07-23T10:54:04.831Z,8.85
2018-07-23T10:56:32.240Z,7.78
2018-07-23T10:58:59.693Z,7.72
2018-07-23T11:01:27.118Z,8.65
2018-07-23T11:03:54.527Z,7.90
2018-07-23T11:06:21.959Z,9.18
2018-07-23T11:08:49.787Z,9.60
2018-07-23T11:11:17.198Z,8.83
2018-07-23T11:13:44.628Z,9.13
2018-07-23T11:16:12.076Z,9.08
2018-07-23T11:18:39.546Z,8.65
2018-07-23T11:21:07.021Z,8.83
2018-07-23T11:23:34.480Z,9.05
2018-07-23T11:26:01.944Z,8.33
2018-07-23T11:28:29.367Z,9.75
2018-07-23T11:30:56.814Z,8.50
2018-07-23T11:33:24.243Z,7.12
2018-07-23T11:35:51.694Z,8.33
2018-07-23T11:38:19.169Z,8.70
2018-07-23T11:40:46.661Z,7.85
2018-07-23T11:43:14.321Z,7.22
2018-07-23T11:45:41.793Z,8.03
2018-07-23T11:48:09.247Z,7.95
2018-07-23T11:50:37.078Z,7.47
2018-07-23T11:53:04.559Z,6.95
2018-07-23T11:55:32.016Z,7.25
2018-07-23T11:57:59.439Z,7.65
2018-07-23T12:00:26.872Z,6.47
2018-07-23T12:02:54.292Z,7.22
2018-07-23T12:05:21.704Z,7.22
2018-07-23T12:07:49.133Z,7.03
2018-07-23T12:10:16.705Z,8.28
2018-07-23T12:12:45.931Z,6.45
2018-07-23T12:15:13.369Z,7.42
2018-07-23T12:17:41.117Z,7.00
2018-07-23T12:20:08.448Z,6.35
2018-07-23T12:22:35.886Z,5.80
2018-07-23T12:25:03.604Z,5.75
2018-07-23T12:27:31.081Z,4.85
2018-07-23T12:29:58.591Z,5.70
2018-07-23T12:32:26.093Z,6.83
2018-07-23T12:34:53.508Z,6.20
2018-07-23T12:37:20.964Z,7.30
2018-07-23T12:39:48.420Z,5.90
2018-07-23T12:42:15.826Z,7.60
2018-07-23T12:44:43.259Z,6.08
2018-07-23T12:47:10.729Z,7.00
2018-07-23T12:49:38.159Z,5.60
2018-07-23T12:52:05.827Z,5.78
2018-07-23T12:54:33.286Z,5.33
2018-07-23T12:57:00.792Z,5.10
2018-07-23T12:59:28.203Z,5.10
2018-07-23T13:01:55.643Z,5.20
2018-07-23T13:04:23.089Z,5.25
2018-07-23T13:06:50.543Z,4.20
2018-07-23T13:09:18.015Z,4.25
2018-07-23T13:11:45.455Z,3.60
2018-07-23T13:14:13.474Z,4.30
2018-07-23T13:16:40.888Z,4.05
2018-07-23T13:19:08.408Z,3.90
2018-07-23T13:21:35.846Z,3.70
2018-07-23T13:24:03.313Z,3.25
2018-07-23T13:26:30.753Z,4.10
2018-07-23T13:28:58.191Z,3.83
2018-07-23T13:31:25.620Z,3.72
2018-07-23T13:33:53.050Z,4.00
2018-07-23T13:36:20.500Z,3.92
2018-07-23T13:38:48.124Z,4.10
2018-07-23T13:41:15.532Z,4.12
2018-07-23T13:43:42.969Z,3.55
2018-07-23T13:48:44.672Z,3.30
2018-07-23T13:51:12.140Z,3.52
2018-07-23T13:53:39.583Z,4.28
2018-07-23T13:56:07.063Z,3.87
2018-07-23T13:58:34.495Z,3.70
2018-07-23T14:01:02.005Z,3.12
2018-07-23T14:03:29.444Z,3.30
2018-07-23T14:05:56.887Z,3.45
2018-07-23T14:08:24.295Z,3.20
2018-07-23T14:10:51.838Z,3.37
2018-07-23T14:13:19.276Z,3.00
2018-07-23T14:15:46.680Z,3.40
2018-07-23T14:18:14.111Z,3.27
2018-07-23T14:20:41.557Z,3.60
2018-07-23T14:23:09.005Z,2.98
2018-07-23T14:25:36.447Z,3.62
2018-07-23T14:28:03.943Z,2.80
2018-07-23T14:30:31.351Z,2.72
2018-07-23T14:32:58.775Z,3.17
2018-07-23T14:35:26.183Z,3.35
2018-07-23T14:37:53.698Z,3.00
2018-07-23T14:40:21.124Z,2.80
2018-07-23T14:42:48.542Z,2.62
2018-07-23T14:45:16.039Z,3.02
2018-07-23T14:47:43.426Z,3.20
2018-07-23T14:50:10.860Z,3.08
2018-07-23T14:52:38.344Z,2.52
2018-07-23T14:55:05.797Z,3.40
2018-07-23T14:57:33.235Z,2.80
2018-07-23T15:00:00.723Z,3.00
2018-07-23T15:02:28.136Z,2.87
2018-07-23T15:04:55.620Z,2.77
2018-07-23T15:07:23.027Z,2.80
2018-07-23T15:09:50.463Z,3.00
2018-07-23T15:12:18.204Z,3.00
2018-07-23T15:14:45.654Z,2.70
2018-07-23T15:17:13.065Z,3.05
2018-07-23T15:19:40.512Z,2.50
2018-07-23T15:22:07.941Z,2.65
2018-07-23T15:24:35.671Z,3.05
2018-07-23T15:27:03.405Z,2.70
2018-07-23T15:29:31.309Z,2.65
2018-07-23T15:31:58.809Z,2.62
2018-07-23T15:34:26.244Z,3.20
2018-07-23T15:36:53.660Z,2.45
2018-07-23T15:39:21.239Z,2.52
2018-07-23T15:41:48.703Z,2.52
2018-07-23T15:44:16.960Z,2.60
2018-07-23T15:46:44.503Z,2.50
2018-07-23T15:49:12.316Z,2.90
2018-07-23T15:51:40.031Z,2.87
2018-07-23T15:54:07.489Z,2.77
2018-07-23T15:56:34.977Z,2.75
2018-07-23T15:59:02.479Z,2.80
2018-07-23T16:01:29.983Z,3.00
2018-07-23T16:03:57.788Z,2.80
2018-07-23T16:06:25.207Z,3.08
2018-07-23T16:08:52.619Z,2.60
2018-07-23T16:11:20.067Z,3.25
2018-07-23T16:13:47.475Z,2.92
2018-07-23T16:16:14.968Z,2.72
2018-07-23T16:18:42.414Z,2.55
2018-07-23T16:21:09.814Z,2.35
2018-07-23T16:23:37.244Z,2.65
2018-07-23T16:26:04.829Z,2.42
2018-07-23T16:28:32.777Z,4.40
2018-07-23T16:31:00.252Z,3.20
2018-07-23T16:33:27.721Z,2.67
2018-07-23T16:35:55.172Z,2.58
2018-07-23T16:38:22.603Z,2.90
2018-07-23T16:40:50.070Z,2.90
2018-07-23T16:43:17.475Z,2.83
2018-07-23T16:45:45.255Z,2.75
2018-07-23T16:48:12.765Z,2.58
2018-07-23T16:50:40.308Z,2.80
2018-07-23T16:53:08.042Z,2.50
2018-07-23T16:55:35.467Z,2.83
2018-07-23T16:58:02.954Z,2.60
2018-07-23T17:00:30.379Z,2.80
2018-07-23T17:02:57.770Z,2.70
2018-07-23T17:05:25.214Z,2.20
2018-07-23T17:07:52.638Z,2.60
2018-07-23T17:10:20.056Z,2.70
2018-07-23T17:12:47.455Z,2.58
2018-07-23T17:15:14.840Z,2.70
2018-07-23T17:17:42.274Z,2.92
2018-07-23T17:20:16.361Z,2.55
2018-07-23T17:22:43.799Z,3.20
2018-07-23T17:25:11.208Z,2.95
2018-07-23T17:27:38.611Z,2.60
2018-07-23T17:30:06.078Z,2.80
2018-07-23T17:32:33.468Z,2.17
2018-07-23T17:35:00.865Z,2.20
2018-07-23T17:37:28.374Z,2.30
2018-07-23T17:39:55.771Z,2.52
2018-07-23T17:42:23.215Z,2.30
2018-07-23T17:44:50.665Z,2.35
2018-07-23T17:47:18.042Z,2.52
2018-07-23T17:49:45.495Z,2.58
2018-07-23T17:52:12.897Z,2.10
2018-07-23T17:54:40.371Z,2.30
2018-07-23T17:57:08.159Z,2.58
2018-07-23T17:59:35.557Z,2.80
2018-07-23T18:02:02.991Z,2.30
2018-07-23T18:04:30.407Z,2.60
2018-07-23T18:06:57.811Z,4.05
2018-07-23T18:09:25.202Z,2.40
2018-07-23T18:11:52.615Z,2.50
2018-07-23T18:14:20.043Z,2.27
2018-07-23T18:16:47.419Z,2.45
2018-07-23T18:19:14.815Z,2.47
2018-07-23T18:21:42.191Z,2.20
2018-07-23T18:24:09.608Z,2.62
2018-07-23T18:26:37.254Z,2.22
2018-07-23T18:29:05.678Z,2.60
2018-07-23T18:31:33.142Z,2.90
2018-07-23T18:34:00.546Z,2.35
2018-07-23T18:36:27.942Z,2.65
2018-07-23T18:38:55.423Z,2.20
2018-07-23T18:41:22.840Z,2.45
2018-07-23T18:43:50.256Z,2.85
2018-07-23T18:46:18.141Z,2.58
2018-07-23T18:49:31.554Z,2.50
2018-07-23T18:51:59.019Z,2.60
2018-07-23T18:54:27.629Z,2.40
2018-07-23T18:56:57.710Z,2.40
2018-07-23T18:59:25.113Z,2.20
2018-07-23T19:01:53.531Z,2.40
2018-07-23T19:04:21.002Z,2.50
2018-07-23T19:06:48.738Z,2.42
2018-07-23T19:09:17.430Z,2.33
2018-07-23T19:11:45.937Z,2.40
2018-07-23T19:14:13.986Z,2.65
2018-07-23T19:16:41.763Z,2.42
2018-07-23T19:19:09.318Z,2.60
2018-07-23T19:21:36.733Z,2.35
2018-07-23T19:24:04.193Z,3.20
2018-07-23T19:26:31.794Z,4.10
2018-07-23T19:28:59.231Z,3.85
2018-07-23T19:31:27.517Z,2.65
2018-07-23T19:33:55.403Z,2.15
2018-07-23T19:36:22.834Z,2.60
2018-07-23T19:38:50.239Z,2.67
2018-07-23T19:41:17.735Z,2.55
2018-07-23T19:43:45.720Z,2.60
2018-07-23T19:46:13.242Z,3.08
2018-07-23T19:48:40.666Z,9.08
2018-07-23T19:51:09.142Z,3.92
2018-07-23T19:53:37.204Z,5.10
2018-07-23T19:56:04.993Z,3.42
2018-07-23T19:58:32.443Z,3.80
2018-07-23T20:00:59.839Z,3.60
2018-07-23T20:03:27.252Z,3.50
2018-07-23T20:05:54.686Z,3.47
2018-07-23T20:08:22.150Z,4.15
2018-07-23T20:10:49.803Z,3.40
2018-07-23T20:13:17.275Z,3.20
2018-07-23T20:15:44.759Z,3.57
2018-07-23T20:18:12.205Z,3.27
2018-07-23T20:20:39.626Z,3.27
2018-07-23T20:23:07.050Z,3.30
2018-07-23T20:25:34.451Z,3.47
2018-07-23T20:28:01.891Z,3.73
2018-07-23T20:30:29.301Z,4.50
2018-07-23T20:32:56.762Z,4.00
2018-07-23T20:35:24.324Z,3.77
2018-07-23T20:37:51.800Z,3.40
2018-07-23T20:40:19.249Z,3.27
2018-07-23T20:42:46.622Z,3.50
2018-07-23T20:45:14.064Z,3.20
2018-07-23T20:47:41.447Z,4.07
2018-07-23T20:50:08.911Z,3.30
2018-07-23T20:52:36.304Z,3.40
2018-07-23T20:55:03.734Z,3.60
2018-07-23T20:57:31.140Z,3.47
2018-07-23T20:59:58.522Z,2.87
2018-07-23T21:02:25.911Z,3.70
2018-07-23T21:04:53.585Z,3.23
2018-07-23T21:07:21.023Z,3.77
2018-07-23T21:09:48.405Z,3.60
2018-07-23T21:12:16.344Z,3.53
2018-07-23T21:14:43.810Z,3.17
2018-07-23T21:17:11.247Z,3.47
2018-07-23T21:19:38.697Z,3.30
2018-07-23T21:22:06.278Z,3.00
2018-07-23T21:24:33.680Z,3.37
2018-07-23T21:27:01.269Z,3.30
2018-07-23T21:29:28.740Z,3.07
2018-07-23T21:31:56.112Z,2.93
2018-07-23T21:34:23.502Z,3.50
2018-07-23T21:36:50.912Z,3.13
2018-07-23T21:39:18.303Z,3.00
2018-07-23T21:41:45.766Z,3.20
2018-07-23T21:44:13.279Z,3.27
2018-07-23T21:46:40.691Z,3.90
2018-07-23T21:49:08.110Z,3.80
2018-07-23T21:51:35.540Z,3.10
2018-07-23T21:54:03.101Z,3.00
2018-07-23T21:56:30.454Z,3.83
2018-07-23T21:58:58.147Z,3.60
2018-07-23T22:01:25.612Z,3.27
2018-07-23T22:03:53.643Z,3.47
2018-07-23T22:06:23.776Z,4.10
2018-07-23T22:08:53.068Z,3.67
2018-07-23T22:11:20.496Z,3.60
2018-07-23T22:13:47.901Z,3.83
2018-07-23T22:16:15.327Z,4.70
2018-07-23T22:18:42.728Z,4.27
2018-07-23T22:21:10.107Z,4.07
2018-07-23T22:23:37.554Z,4.30
2018-07-23T22:26:05.558Z,4.37
2018-07-23T22:28:33.135Z,4.23
2018-07-23T22:31:00.681Z,4.03
2018-07-23T22:33:28.242Z,4.13
2018-07-23T22:35:55.630Z,4.10
2018-07-23T22:38:23.103Z,4.73
2018-07-23T22:40:50.726Z,4.93
2018-07-23T22:43:18.464Z,4.50
2018-07-23T22:45:45.886Z,3.50
2018-07-23T22:48:13.318Z,4.00
2018-07-23T22:50:40.750Z,4.13
2018-07-23T22:53:08.416Z,4.00
2018-07-23T22:55:36.174Z,3.80
2018-07-23T22:58:03.940Z,3.60
2018-07-23T23:00:31.658Z,3.93
2018-07-23T23:02:59.275Z,3.70
2018-07-23T23:05:26.736Z,3.67
2018-07-23T23:07:54.208Z,3.33
2018-07-23T23:10:21.651Z,3.37
2018-07-23T23:12:49.070Z,3.70
2018-07-23T23:15:16.535Z,3.40
2018-07-23T23:17:43.963Z,3.60
2018-07-23T23:20:11.437Z,3.27
2018-07-23T23:22:38.870Z,3.60
2018-07-23T23:25:06.379Z,3.67
2018-07-23T23:27:33.795Z,3.50
2018-07-23T23:30:01.386Z,3.07
2018-07-23T23:32:28.941Z,3.17
2018-07-23T23:34:56.399Z,3.33
2018-07-23T23:37:23.808Z,3.30
2018-07-23T23:39:51.230Z,3.07
2018-07-23T23:42:19.436Z,3.30
2018-07-23T23:44:46.862Z,3.30
2018-07-23T23:47:14.277Z,3.27
2018-07-23T23:49:41.699Z,3.23
2018-07-23T23:52:09.341Z,3.30
2018-07-23T23:54:36.743Z,3.30
2018-07-23T23:57:04.254Z,2.87
2018-07-23T23:59:31.706Z,3.07
